sensor_id;sensor_type;location;lat;lon;timestamp;pressure;altitude;pressure_sealevel;temperature;humidity
49216;BME280;45943;53.148;8.204;2023-02-13T00:02:04;103920.03;;;10.12;100.00
49216;BME280;45943;53.148;8.204;2023-02-13T00:04:30;103922.72;;;10.12;100.00
49216;BME280;45943;53.148;8.204;2023-02-13T00:06:56;103915.56;;;10.13;100.00
49216;BME280;45943;53.148;8.204;2023-02-13T00:09:22;103916.47;;;10.13;100.00
49216;BME280;45943;53.148;8.204;2023-02-13T00:11:48;103912.88;;;10.13;100.00
49216;BME280;45943;53.148;8.204;2023-02-13T00:14:14;103916.47;;;10.13;100.00
49216;BME280;45943;53.148;8.204;2023-02-13T00:16:40;103919.97;;;10.15;100.00
49216;BME280;45943;53.148;8.204;2023-02-13T00:19:06;103919.97;;;10.15;100.00
49216;BME280;45943;53.148;8.204;2023-02-13T00:21:32;103912.81;;;10.16;100.00
49216;BME280;45943;53.148;8.204;2023-02-13T00:23:58;103907.44;;;10.16;100.00
49216;BME280;45943;53.148;8.204;2023-02-13T00:26:24;103913.78;;;10.13;100.00
49216;BME280;45943;53.148;8.204;2023-02-13T00:28:50;103907.50;;;10.13;100.00
49216;BME280;45943;53.148;8.204;2023-02-13T00:31:17;103904.81;;;10.13;100.00
49216;BME280;45943;53.148;8.204;2023-02-13T00:33:45;103909.31;;;10.12;100.00
49216;BME280;45943;53.148;8.204;2023-02-13T00:36:12;103898.63;;;10.11;100.00
49216;BME280;45943;53.148;8.204;2023-02-13T00:38:40;103896.06;;;10.07;100.00
49216;BME280;45943;53.148;8.204;2023-02-13T00:41:07;103899.78;;;10.02;100.00
49216;BME280;45943;53.148;8.204;2023-02-13T00:43:34;103898.03;;;10.01;100.00
49216;BME280;45943;53.148;8.204;2023-02-13T00:46:00;103889.16;;;9.99;100.00
49216;BME280;45943;53.148;8.204;2023-02-13T00:48:27;103889.03;;;10.03;100.00
49216;BME280;45943;53.148;8.204;2023-02-13T00:50:54;103890.78;;;10.04;100.00
49216;BME280;45943;53.148;8.204;2023-02-13T00:53:21;103888.06;;;10.06;100.00
49216;BME280;45943;53.148;8.204;2023-02-13T00:55:48;103885.28;;;10.09;100.00
49216;BME280;45943;53.148;8.204;2023-02-13T00:58:14;103882.66;;;10.07;100.00
49216;BME280;45943;53.148;8.204;2023-02-13T01:00:40;103891.63;;;10.06;100.00
49216;BME280;45943;53.148;8.204;2023-02-13T01:03:07;103892.50;;;10.07;100.00
49216;BME280;45943;53.148;8.204;2023-02-13T01:05:33;103893.59;;;10.00;100.00
49216;BME280;45943;53.148;8.204;2023-02-13T01:07:59;103896.69;;;9.86;100.00
49216;BME280;45943;53.148;8.204;2023-02-13T01:10:25;103892.41;;;9.79;100.00
49216;BME280;45943;53.148;8.204;2023-02-13T01:12:51;103893.34;;;9.78;100.00
49216;BME280;45943;53.148;8.204;2023-02-13T01:15:18;103897.72;;;9.81;100.00
49216;BME280;45943;53.148;8.204;2023-02-13T01:17:44;103894.94;;;9.85;100.00
49216;BME280;45943;53.148;8.204;2023-02-13T01:20:10;103894.75;;;9.91;100.00
49216;BME280;45943;53.148;8.204;2023-02-13T01:22:38;103886.66;;;9.93;100.00
49216;BME280;45943;53.148;8.204;2023-02-13T01:25:04;103891.13;;;9.94;100.00
49216;BME280;45943;53.148;8.204;2023-02-13T01:27:31;103889.31;;;9.93;100.00
49216;BME280;45943;53.148;8.204;2023-02-13T01:29:58;103895.63;;;9.92;100.00
49216;BME280;45943;53.148;8.204;2023-02-13T01:32:24;103892.00;;;9.93;100.00
49216;BME280;45943;53.148;8.204;2023-02-13T01:34:50;103894.75;;;9.91;100.00
49216;BME280;45943;53.148;8.204;2023-02-13T01:37:16;103895.75;;;9.87;100.00
49216;BME280;45943;53.148;8.204;2023-02-13T01:39:42;103890.56;;;9.81;100.00
49216;BME280;45943;53.148;8.204;2023-02-13T01:42:12;103883.34;;;9.83;100.00
49216;BME280;45943;53.148;8.204;2023-02-13T01:44:46;103880.72;;;9.82;100.00
49216;BME280;45943;53.148;8.204;2023-02-13T01:47:15;103877.25;;;9.78;100.00
49216;BME280;45943;53.148;8.204;2023-02-13T01:49:46;103875.56;;;9.75;100.00
49216;BME280;45943;53.148;8.204;2023-02-13T01:52:15;103883.72;;;9.71;100.00
49216;BME280;45943;53.148;8.204;2023-02-13T01:54:41;103880.09;;;9.73;100.00
49216;BME280;45943;53.148;8.204;2023-02-13T01:57:10;103871.94;;;9.76;100.00
49216;BME280;45943;53.148;8.204;2023-02-13T01:59:43;103866.47;;;9.80;100.00
49216;BME280;45943;53.148;8.204;2023-02-13T02:02:12;103864.78;;;9.77;100.00
49216;BME280;45943;53.148;8.204;2023-02-13T02:04:38;103863.84;;;9.78;100.00
49216;BME280;45943;53.148;8.204;2023-02-13T02:07:09;103863.84;;;9.78;100.00
49216;BME280;45943;53.148;8.204;2023-02-13T02:09:41;103864.72;;;9.78;100.00
49216;BME280;45943;53.148;8.204;2023-02-13T02:12:25;103871.84;;;9.80;100.00
49216;BME280;45943;53.148;8.204;2023-02-13T02:14:59;103869.94;;;9.83;100.00
49216;BME280;45943;53.148;8.204;2023-02-13T02:17:27;103864.41;;;9.89;100.00
49216;BME280;45943;53.148;8.204;2023-02-13T02:28:45;103865.84;;;10.01;100.00
49216;BME280;45943;53.148;8.204;2023-02-13T02:47:58;103842.63;;;10.00;100.00
49216;BME280;45943;53.148;8.204;2023-02-13T02:50:56;103828.34;;;9.99;100.00
49216;BME280;45943;53.148;8.204;2023-02-13T02:56:49;103838.69;;;9.84;100.00
49216;BME280;45943;53.148;8.204;2023-02-13T02:59:17;103828.84;;;9.83;100.00
49216;BME280;45943;53.148;8.204;2023-02-13T03:02:05;103831.41;;;9.87;100.00
49216;BME280;45943;53.148;8.204;2023-02-13T03:04:52;103834.88;;;9.91;100.00
49216;BME280;45943;53.148;8.204;2023-02-13T03:07:39;103833.00;;;9.94;100.00
49216;BME280;45943;53.148;8.204;2023-02-13T03:10:18;103829.38;;;9.95;100.00
49216;BME280;45943;53.148;8.204;2023-02-13T03:13:16;103825.78;;;9.96;100.00
49216;BME280;45943;53.148;8.204;2023-02-13T03:15:58;103822.13;;;9.99;100.00
49216;BME280;45943;53.148;8.204;2023-02-13T03:18:45;103832.91;;;9.97;100.00
49216;BME280;45943;53.148;8.204;2023-02-13T03:21:49;103828.50;;;9.95;100.00
49216;BME280;45943;53.148;8.204;2023-02-13T03:27:35;103828.78;;;9.86;100.00
49216;BME280;45943;53.148;8.204;2023-02-13T03:33:41;103810.06;;;9.84;100.00
49216;BME280;45943;53.148;8.204;2023-02-13T03:39:10;103814.50;;;9.85;100.00
49216;BME280;45943;53.148;8.204;2023-02-13T03:41:46;103819.00;;;9.83;100.00
49216;BME280;45943;53.148;8.204;2023-02-13T03:44:36;103826.16;;;9.84;100.00
49216;BME280;45943;53.148;8.204;2023-02-13T03:47:07;103823.41;;;9.86;100.00
49216;BME280;45943;53.148;8.204;2023-02-13T03:49:36;103817.31;;;9.81;100.00
49216;BME280;45943;53.148;8.204;2023-02-13T03:57:57;103815.75;;;9.73;100.00
49216;BME280;45943;53.148;8.204;2023-02-13T04:00:47;103813.06;;;9.73;100.00
49216;BME280;45943;53.148;8.204;2023-02-13T04:05:53;103821.78;;;9.80;100.00
49216;BME280;45943;53.148;8.204;2023-02-13T04:08:25;103824.41;;;9.82;100.00
49216;BME280;45943;53.148;8.204;2023-02-13T04:16:22;103829.00;;;9.78;100.00
49216;BME280;45943;53.148;8.204;2023-02-13T04:18:53;103832.41;;;9.83;100.00
49216;BME280;45943;53.148;8.204;2023-02-13T04:21:21;103835.94;;;9.85;100.00
49216;BME280;45943;53.148;8.204;2023-02-13T04:23:47;103837.78;;;9.83;100.00
49216;BME280;45943;53.148;8.204;2023-02-13T04:26:15;103838.75;;;9.81;100.00
49216;BME280;45943;53.148;8.204;2023-02-13T04:28:44;103839.63;;;9.81;100.00
49216;BME280;45943;53.148;8.204;2023-02-13T04:31:10;103838.69;;;9.82;100.00
49216;BME280;45943;53.148;8.204;2023-02-13T04:33:36;103831.50;;;9.84;100.00
49216;BME280;45943;53.148;8.204;2023-02-13T04:36:02;103836.00;;;9.84;100.00
49216;BME280;45943;53.148;8.204;2023-02-13T04:38:28;103834.31;;;9.80;100.00
49216;BME280;45943;53.148;8.204;2023-02-13T04:40:54;103826.53;;;9.70;100.00
49216;BME280;45943;53.148;8.204;2023-02-13T04:43:20;103830.09;;;9.71;100.00
49216;BME280;45943;53.148;8.204;2023-02-13T04:45:48;103840.75;;;9.74;100.00
49216;BME280;45943;53.148;8.204;2023-02-13T04:48:15;103844.25;;;9.76;100.00
49216;BME280;45943;53.148;8.204;2023-02-13T04:50:41;103837.81;;;9.82;100.00
49216;BME280;45943;53.148;8.204;2023-02-13T04:53:07;103834.16;;;9.86;100.00
49216;BME280;45943;53.148;8.204;2023-02-13T04:55:33;103826.09;;;9.86;100.00
49216;BME280;45943;53.148;8.204;2023-02-13T04:57:59;103830.63;;;9.84;100.00
49216;BME280;45943;53.148;8.204;2023-02-13T05:00:25;103822.63;;;9.82;100.00
49216;BME280;45943;53.148;8.204;2023-02-13T05:03:04;103830.72;;;9.81;100.00
49216;BME280;45943;53.148;8.204;2023-02-13T05:05:32;103829.78;;;9.82;100.00
49216;BME280;45943;53.148;8.204;2023-02-13T05:07:58;103831.53;;;9.83;100.00
49216;BME280;45943;53.148;8.204;2023-02-13T05:10:24;103824.47;;;9.80;100.00
49216;BME280;45943;53.148;8.204;2023-02-13T05:12:53;103836.16;;;9.77;100.00
49216;BME280;45943;53.148;8.204;2023-02-13T05:15:19;103837.03;;;9.78;100.00
49216;BME280;45943;53.148;8.204;2023-02-13T05:17:45;103833.44;;;9.79;100.00
49216;BME280;45943;53.148;8.204;2023-02-13T05:20:12;103831.69;;;9.78;100.00
49216;BME280;45943;53.148;8.204;2023-02-13T05:22:49;103841.47;;;9.79;100.00
49216;BME280;45943;53.148;8.204;2023-02-13T05:25:36;103845.03;;;9.80;100.00
49216;BME280;45943;53.148;8.204;2023-02-13T05:28:03;103843.13;;;9.83;100.00
49216;BME280;45943;53.148;8.204;2023-02-13T05:30:29;103843.06;;;9.86;100.00
49216;BME280;45943;53.148;8.204;2023-02-13T05:32:55;103835.91;;;9.87;100.00
49216;BME280;45943;53.148;8.204;2023-02-13T05:35:21;103845.91;;;9.80;100.00
49216;BME280;45943;53.148;8.204;2023-02-13T05:37:47;103837.25;;;9.70;100.00
49216;BME280;45943;53.148;8.204;2023-02-13T05:40:13;103837.22;;;9.72;100.00
49216;BME280;45943;53.148;8.204;2023-02-13T05:42:40;103837.09;;;9.76;100.00
49216;BME280;45943;53.148;8.204;2023-02-13T05:45:07;103845.81;;;9.83;100.00
49216;BME280;45943;53.148;8.204;2023-02-13T05:47:33;103840.38;;;9.86;100.00
49216;BME280;45943;53.148;8.204;2023-02-13T05:49:59;103840.44;;;9.85;100.00
49216;BME280;45943;53.148;8.204;2023-02-13T05:52:25;103837.75;;;9.85;100.00
49216;BME280;45943;53.148;8.204;2023-02-13T05:54:51;103845.00;;;9.81;100.00
49216;BME280;45943;53.148;8.204;2023-02-13T05:57:17;103850.28;;;9.84;100.00
49216;BME280;45943;53.148;8.204;2023-02-13T05:59:44;103838.63;;;9.85;100.00
49216;BME280;45943;53.148;8.204;2023-02-13T06:02:10;103842.19;;;9.86;100.00
49216;BME280;45943;53.148;8.204;2023-02-13T06:04:36;103845.81;;;9.83;100.00
49216;BME280;45943;53.148;8.204;2023-02-13T06:07:02;103848.66;;;9.78;100.00
49216;BME280;45943;53.148;8.204;2023-02-13T06:09:28;103854.88;;;9.79;100.00
49216;BME280;45943;53.148;8.204;2023-02-13T06:11:54;103854.78;;;9.82;100.00
49216;BME280;45943;53.148;8.204;2023-02-13T06:14:20;103849.41;;;9.84;100.00
49216;BME280;45943;53.148;8.204;2023-02-13T06:16:46;103857.44;;;9.84;100.00
49216;BME280;45943;53.148;8.204;2023-02-13T06:19:12;103862.66;;;9.88;100.00
49216;BME280;45943;53.148;8.204;2023-02-13T06:21:37;103864.41;;;9.89;100.00
49216;BME280;45943;53.148;8.204;2023-02-13T06:24:04;103868.03;;;9.88;100.00
49216;BME280;45943;53.148;8.204;2023-02-13T06:26:31;103861.78;;;9.88;100.00
49216;BME280;45943;53.148;8.204;2023-02-13T06:28:57;103871.53;;;9.90;100.00
49216;BME280;45943;53.148;8.204;2023-02-13T06:31:23;103867.97;;;9.90;100.00
49216;BME280;45943;53.148;8.204;2023-02-13T06:33:49;103870.66;;;9.90;100.00
49216;BME280;45943;53.148;8.204;2023-02-13T06:36:15;103873.28;;;9.91;100.00
49216;BME280;45943;53.148;8.204;2023-02-13T06:38:41;103871.53;;;9.90;100.00
49216;BME280;45943;53.148;8.204;2023-02-13T06:41:10;103883.97;;;9.93;100.00
49216;BME280;45943;53.148;8.204;2023-02-13T06:43:36;103877.78;;;9.91;100.00
49216;BME280;45943;53.148;8.204;2023-02-13T06:46:05;103884.94;;;9.90;100.00
49216;BME280;45943;53.148;8.204;2023-02-13T06:48:32;103891.22;;;9.89;100.00
49216;BME280;45943;53.148;8.204;2023-02-13T06:50:59;103879.53;;;9.92;100.00
49216;BME280;45943;53.148;8.204;2023-02-13T06:53:29;103884.94;;;9.90;100.00
49216;BME280;45943;53.148;8.204;2023-02-13T06:55:55;103888.66;;;9.86;100.00
49216;BME280;45943;53.148;8.204;2023-02-13T06:58:22;103881.66;;;9.81;100.00
49216;BME280;45943;53.148;8.204;2023-02-13T07:00:49;103892.38;;;9.81;100.00
49216;BME280;45943;53.148;8.204;2023-02-13T07:03:16;103889.69;;;9.81;100.00
49216;BME280;45943;53.148;8.204;2023-02-13T07:05:42;103883.50;;;9.78;100.00
49216;BME280;45943;53.148;8.204;2023-02-13T07:08:10;103881.78;;;9.76;100.00
49216;BME280;45943;53.148;8.204;2023-02-13T07:10:37;103887.94;;;9.80;100.00
49216;BME280;45943;53.148;8.204;2023-02-13T07:13:04;103887.94;;;9.80;100.00
49216;BME280;45943;53.148;8.204;2023-02-13T07:15:31;103882.66;;;9.76;100.00
49216;BME280;45943;53.148;8.204;2023-02-13T07:18:01;103886.22;;;9.77;100.00
49216;BME280;45943;53.148;8.204;2023-02-13T07:20:30;103887.00;;;9.81;100.00
49216;BME280;45943;53.148;8.204;2023-02-13T07:22:57;103897.66;;;9.84;100.00
49216;BME280;45943;53.148;8.204;2023-02-13T07:25:24;103893.13;;;9.86;100.00
49216;BME280;45943;53.148;8.204;2023-02-13T07:27:50;103885.13;;;9.84;100.00
49216;BME280;45943;53.148;8.204;2023-02-13T07:30:17;103890.63;;;9.80;100.00
49216;BME280;45943;53.148;8.204;2023-02-13T07:32:43;103894.22;;;9.78;100.00
49216;BME280;45943;53.148;8.204;2023-02-13T07:35:09;103889.78;;;9.77;100.00
49216;BME280;45943;53.148;8.204;2023-02-13T07:37:35;103895.09;;;9.79;100.00
49216;BME280;45943;53.148;8.204;2023-02-13T07:40:01;103896.81;;;9.82;100.00
49216;BME280;45943;53.148;8.204;2023-02-13T07:42:31;103895.97;;;9.80;100.00
49216;BME280;45943;53.148;8.204;2023-02-13T07:44:58;103897.72;;;9.81;100.00
49216;BME280;45943;53.148;8.204;2023-02-13T07:47:24;103901.34;;;9.80;100.00
49216;BME280;45943;53.148;8.204;2023-02-13T07:49:50;103898.59;;;9.81;100.00
49216;BME280;45943;53.148;8.204;2023-02-13T07:52:16;103899.53;;;9.80;100.00
49216;BME280;45943;53.148;8.204;2023-02-13T07:54:42;103903.03;;;9.84;100.00
49216;BME280;45943;53.148;8.204;2023-02-13T07:57:12;103898.44;;;9.87;100.00
49216;BME280;45943;53.148;8.204;2023-02-13T07:59:39;103905.56;;;9.88;100.00
49216;BME280;45943;53.148;8.204;2023-02-13T08:02:05;103893.09;;;9.87;100.00
49216;BME280;45943;53.148;8.204;2023-02-13T08:04:31;103901.06;;;9.89;100.00
49216;BME280;45943;53.148;8.204;2023-02-13T08:06:57;103897.50;;;9.88;100.00
49216;BME280;45943;53.148;8.204;2023-02-13T08:09:22;103899.38;;;9.86;100.00
49216;BME280;45943;53.148;8.204;2023-02-13T08:12:07;103896.81;;;9.82;100.00
49216;BME280;45943;53.148;8.204;2023-02-13T08:14:34;103902.13;;;9.83;100.00
49216;BME280;45943;53.148;8.204;2023-02-13T08:17:00;103901.94;;;9.89;100.00
49216;BME280;45943;53.148;8.204;2023-02-13T08:19:26;103898.28;;;9.93;100.00
49216;BME280;45943;53.148;8.204;2023-02-13T08:21:52;103904.53;;;9.94;100.00
49216;BME280;45943;53.148;8.204;2023-02-13T08:24:18;103896.69;;;9.86;100.00
49216;BME280;45943;53.148;8.204;2023-02-13T08:26:44;103897.72;;;9.81;100.00
49216;BME280;45943;53.148;8.204;2023-02-13T08:29:10;103904.03;;;9.80;100.00
49216;BME280;45943;53.148;8.204;2023-02-13T08:31:37;103902.41;;;9.74;100.00
49216;BME280;45943;53.148;8.204;2023-02-13T08:34:03;103903.28;;;9.74;100.00
49216;BME280;45943;53.148;8.204;2023-02-13T08:36:29;103899.53;;;9.80;100.00
49216;BME280;45943;53.148;8.204;2023-02-13T08:38:55;103898.56;;;9.83;100.00
49216;BME280;45943;53.148;8.204;2023-02-13T08:41:21;103903.03;;;9.82;100.00
49216;BME280;45943;53.148;8.204;2023-02-13T08:43:48;103903.09;;;9.81;100.00
49216;BME280;45943;53.148;8.204;2023-02-13T08:46:15;103895.94;;;9.81;100.00
49216;BME280;45943;53.148;8.204;2023-02-13T08:48:43;103902.09;;;9.85;100.00
49216;BME280;45943;53.148;8.204;2023-02-13T08:51:09;103901.22;;;9.84;100.00
49216;BME280;45943;53.148;8.204;2023-02-13T08:53:37;103901.13;;;9.87;100.00
49216;BME280;45943;53.148;8.204;2023-02-13T08:56:04;103907.22;;;9.92;100.00
49216;BME280;45943;53.148;8.204;2023-02-13T08:58:31;103909.03;;;9.92;100.00
49216;BME280;45943;53.148;8.204;2023-02-13T09:00:57;103916.13;;;9.93;100.00
49216;BME280;45943;53.148;8.204;2023-02-13T09:03:23;103910.78;;;9.93;100.00
49216;BME280;45943;53.148;8.204;2023-02-13T09:05:49;103917.00;;;9.95;100.00
49216;BME280;45943;53.148;8.204;2023-02-13T09:08:15;103912.78;;;9.86;100.00
49216;BME280;45943;53.148;8.204;2023-02-13T09:10:41;103916.50;;;9.81;100.00
49216;BME280;45943;53.148;8.204;2023-02-13T09:13:10;103917.47;;;9.78;100.00
49216;BME280;45943;53.148;8.204;2023-02-13T09:15:37;103923.66;;;9.80;100.00
49216;BME280;45943;53.148;8.204;2023-02-13T09:18:05;103913.75;;;9.84;100.00
49216;BME280;45943;53.148;8.204;2023-02-13T09:20:31;103922.56;;;9.87;100.00
49216;BME280;45943;53.148;8.204;2023-02-13T09:22:57;103913.50;;;9.91;100.00
49216;BME280;45943;53.148;8.204;2023-02-13T09:25:24;103924.31;;;9.88;100.00
49216;BME280;45943;53.148;8.204;2023-02-13T09:27:50;103926.38;;;9.78;100.00
49216;BME280;45943;53.148;8.204;2023-02-13T09:30:16;103933.72;;;9.72;100.00
49216;BME280;45943;53.148;8.204;2023-02-13T09:32:48;103928.28;;;9.75;100.00
49216;BME280;45943;53.148;8.204;2023-02-13T09:35:15;103928.09;;;9.81;100.00
49216;BME280;45943;53.148;8.204;2023-02-13T09:37:42;103931.59;;;9.83;100.00
49216;BME280;45943;53.148;8.204;2023-02-13T09:40:26;103932.47;;;9.85;100.00
49216;BME280;45943;53.148;8.204;2023-02-13T09:43:13;103929.06;;;9.78;100.00
49216;BME280;45943;53.148;8.204;2023-02-13T09:45:47;103925.66;;;9.72;100.00
49216;BME280;45943;53.148;8.204;2023-02-13T09:48:28;103925.66;;;9.72;100.00
49216;BME280;45943;53.148;8.204;2023-02-13T09:50:57;103926.69;;;9.68;100.00
49216;BME280;45943;53.148;8.204;2023-02-13T09:53:26;103919.56;;;9.67;100.00
49216;BME280;45943;53.148;8.204;2023-02-13T09:55:57;103922.22;;;9.68;100.00
49216;BME280;45943;53.148;8.204;2023-02-13T10:01:27;103924.94;;;9.67;100.00
49216;BME280;45943;53.148;8.204;2023-02-13T10:06:43;103923.38;;;9.58;100.00
49216;BME280;45943;53.148;8.204;2023-02-13T10:17:41;103933.03;;;9.65;100.00
49216;BME280;45943;53.148;8.204;2023-02-13T10:20:19;103932.16;;;9.65;100.00
49216;BME280;45943;53.148;8.204;2023-02-13T10:22:55;103929.28;;;9.71;100.00
49216;BME280;45943;53.148;8.204;2023-02-13T10:25:28;103939.94;;;9.74;100.00
49216;BME280;45943;53.148;8.204;2023-02-13T10:28:02;103936.34;;;9.75;100.00
49216;BME280;45943;53.148;8.204;2023-02-13T10:30:47;103935.25;;;9.81;100.00
49216;BME280;45943;53.148;8.204;2023-02-13T10:33:18;103936.03;;;9.86;100.00
49216;BME280;45943;53.148;8.204;2023-02-13T10:38:39;103943.25;;;9.84;100.00
49216;BME280;45943;53.148;8.204;2023-02-13T10:44:22;103941.94;;;9.66;100.00
49216;BME280;45943;53.148;8.204;2023-02-13T10:55:51;103937.84;;;9.85;100.00
49216;BME280;45943;53.148;8.204;2023-02-13T11:01:17;103924.59;;;9.79;100.00
49216;BME280;45943;53.148;8.204;2023-02-13T11:03:48;103916.28;;;9.88;100.00
49216;BME280;45943;53.148;8.204;2023-02-13T11:06:27;103910.75;;;9.94;100.00
49216;BME280;45943;53.148;8.204;2023-02-13T11:08:54;103914.16;;;9.99;100.00
49216;BME280;45943;53.148;8.204;2023-02-13T11:11:30;103901.53;;;10.04;100.00
49216;BME280;45943;53.148;8.204;2023-02-13T11:14:12;103893.38;;;10.07;100.00
49216;BME280;45943;53.148;8.204;2023-02-13T11:16:57;103896.16;;;10.04;100.00
49216;BME280;45943;53.148;8.204;2023-02-13T11:19:33;103889.38;;;9.91;100.00
49216;BME280;45943;53.148;8.204;2023-02-13T11:22:10;103887.09;;;9.77;100.00
49216;BME280;45943;53.148;8.204;2023-02-13T11:24:39;103889.00;;;9.74;100.00
49216;BME280;45943;53.148;8.204;2023-02-13T11:27:08;103874.63;;;9.76;100.00
49216;BME280;45943;53.148;8.204;2023-02-13T11:29:51;103883.22;;;9.88;100.00
49216;BME280;45943;53.148;8.204;2023-02-13T11:32:22;103877.66;;;9.95;100.00
49216;BME280;45943;53.148;8.204;2023-02-13T11:34:49;103872.41;;;9.91;100.00
49216;BME280;45943;53.148;8.204;2023-02-13T11:37:21;103878.78;;;9.87;100.00
49216;BME280;45943;53.148;8.204;2023-02-13T11:39:52;103885.88;;;9.89;100.00
49216;BME280;45943;53.148;8.204;2023-02-13T11:42:27;103886.56;;;9.96;100.00
49216;BME280;45943;53.148;8.204;2023-02-13T11:44:57;103890.84;;;10.03;100.00
49216;BME280;45943;53.148;8.204;2023-02-13T11:47:43;103879.41;;;9.96;100.00
49216;BME280;45943;53.148;8.204;2023-02-13T11:52:58;103884.22;;;9.85;100.00
49216;BME280;45943;53.148;8.204;2023-02-13T11:55:36;103887.78;;;9.86;100.00
49216;BME280;45943;53.148;8.204;2023-02-13T12:00:37;103887.50;;;9.95;100.00
49216;BME280;45943;53.148;8.204;2023-02-13T12:03:23;103884.00;;;9.91;100.00
49216;BME280;45943;53.148;8.204;2023-02-13T12:06:09;103883.19;;;9.89;100.00
49216;BME280;45943;53.148;8.204;2023-02-13T12:08:39;103875.19;;;9.88;100.00
49216;BME280;45943;53.148;8.204;2023-02-13T12:13:46;103875.41;;;9.80;100.00
49216;BME280;45943;53.148;8.204;2023-02-13T12:16:24;103874.53;;;9.80;100.00
49216;BME280;45943;53.148;8.204;2023-02-13T12:18:59;103869.72;;;9.91;100.00
49216;BME280;45943;53.148;8.204;2023-02-13T12:21:43;103870.44;;;9.97;100.00
49216;BME280;45943;53.148;8.204;2023-02-13T12:35:34;103858.00;;;9.95;100.00
49216;BME280;45943;53.148;8.204;2023-02-13T12:47:09;103846.34;;;9.96;100.00
49216;BME280;45943;53.148;8.204;2023-02-13T12:49:52;103850.13;;;9.89;100.00
49216;BME280;45943;53.148;8.204;2023-02-13T12:55:36;103848.59;;;10.10;100.00
49216;BME280;45943;53.148;8.204;2023-02-13T13:03:23;103835.56;;;9.97;100.00
49216;BME280;45943;53.148;8.204;2023-02-13T13:06:01;103844.78;;;9.89;100.00
49216;BME280;45943;53.148;8.204;2023-02-13T13:17:12;103836.88;;;9.84;100.00
49216;BME280;45943;53.148;8.204;2023-02-13T13:28:10;103825.19;;;9.87;100.00
49216;BME280;45943;53.148;8.204;2023-02-13T13:30:41;103824.09;;;9.92;100.00
49216;BME280;45943;53.148;8.204;2023-02-13T13:33:21;103817.56;;;10.01;100.00
49216;BME280;45943;53.148;8.204;2023-02-13T13:36:04;103812.25;;;9.99;100.00
49216;BME280;45943;53.148;8.204;2023-02-13T13:41:54;103811.28;;;10.02;100.00
49216;BME280;45943;53.148;8.204;2023-02-13T13:49:49;103804.72;;;9.83;100.00
49216;BME280;45943;53.148;8.204;2023-02-13T13:52:22;103800.00;;;9.91;100.00
49216;BME280;45943;53.148;8.204;2023-02-13T13:54:48;103802.56;;;9.95;100.00
49216;BME280;45943;53.148;8.204;2023-02-13T14:02:47;103801.44;;;10.02;100.00
49216;BME280;45943;53.148;8.204;2023-02-13T14:05:18;103797.00;;;10.01;100.00
49216;BME280;45943;53.148;8.204;2023-02-13T14:07:55;103797.16;;;9.97;100.00
49216;BME280;45943;53.148;8.204;2023-02-13T14:18:05;103800.53;;;10.03;100.00
49216;BME280;45943;53.148;8.204;2023-02-13T14:23:13;103798.63;;;10.07;100.00
49216;BME280;45943;53.148;8.204;2023-02-13T14:25:41;103787.16;;;10.02;100.00
49216;BME280;45943;53.148;8.204;2023-02-13T14:28:14;103789.16;;;9.95;100.00
49216;BME280;45943;53.148;8.204;2023-02-13T14:30:49;103787.44;;;9.93;100.00
49216;BME280;45943;53.148;8.204;2023-02-13T14:33:26;103785.66;;;9.93;100.00
49216;BME280;45943;53.148;8.204;2023-02-13T14:36:15;103777.78;;;9.87;100.00
49216;BME280;45943;53.148;8.204;2023-02-13T14:38:56;103772.47;;;9.86;100.00
49216;BME280;45943;53.148;8.204;2023-02-13T14:41:40;103772.53;;;9.84;100.00
49216;BME280;45943;53.148;8.204;2023-02-13T14:44:19;103777.03;;;9.84;100.00
49216;BME280;45943;53.148;8.204;2023-02-13T14:46:50;103777.91;;;9.83;100.00
49216;BME280;45943;53.148;8.204;2023-02-13T14:49:24;103776.81;;;9.90;100.00
49216;BME280;45943;53.148;8.204;2023-02-13T14:51:57;103762.53;;;9.89;100.00
49216;BME280;45943;53.148;8.204;2023-02-13T14:54:32;103762.41;;;9.94;100.00
49216;BME280;45943;53.148;8.204;2023-02-13T14:57:12;103753.44;;;9.95;100.00
49216;BME280;45943;53.148;8.204;2023-02-13T15:02:41;103750.75;;;9.95;100.00
49216;BME280;45943;53.148;8.204;2023-02-13T15:05:15;103750.81;;;9.93;100.00
49216;BME280;45943;53.148;8.204;2023-02-13T15:07:48;103755.84;;;10.02;100.00
49216;BME280;45943;53.148;8.204;2023-02-13T15:11:02;103754.84;;;10.06;100.00
49216;BME280;45943;53.148;8.204;2023-02-13T15:13:12;103753.09;;;10.05;100.00
49216;BME280;45943;53.148;8.204;2023-02-13T15:15:43;103750.53;;;10.01;100.00
49216;BME280;45943;53.148;8.204;2023-02-13T15:18:19;103749.88;;;10.22;100.00
49216;BME280;45943;53.148;8.204;2023-02-13T15:20:48;103757.53;;;10.34;100.00
49216;BME280;45943;53.148;8.204;2023-02-13T15:23:19;103753.69;;;10.43;100.00
49216;BME280;45943;53.148;8.204;2023-02-13T15:25:47;103755.31;;;10.47;100.00
49216;BME280;45943;53.148;8.204;2023-02-13T15:28:22;103748.91;;;10.51;100.00
49216;BME280;45943;53.148;8.204;2023-02-13T15:30:56;103751.50;;;10.54;100.00
49216;BME280;45943;53.148;8.204;2023-02-13T15:33:23;103754.19;;;10.54;100.00
49216;BME280;45943;53.148;8.204;2023-02-13T15:35:55;103750.69;;;10.52;100.00
49216;BME280;45943;53.148;8.204;2023-02-13T15:38:23;103745.97;;;10.59;100.00
49216;BME280;45943;53.148;8.204;2023-02-13T15:40:52;103752.44;;;10.53;100.00
49216;BME280;45943;53.148;8.204;2023-02-13T15:43:21;103748.09;;;10.49;100.00
49216;BME280;45943;53.148;8.204;2023-02-13T15:45:55;103744.53;;;10.49;100.00
49216;BME280;45943;53.148;8.204;2023-02-13T15:48:25;103741.91;;;10.47;100.00
49216;BME280;45943;53.148;8.204;2023-02-13T15:50:54;103743.81;;;10.44;100.00